Time;durP1;ratioP1;P1;durP2;ratioP2;P2;SDS_P1;SDS_P2;PMS_P1;PMS_P2;Temp;Humidity;BMP_temperature;BMP_pressure;BME280_temperature;BME280_humidity;BME280_pressure;Samples;Min_cycle;Max_cycle;Signal;HPM_P1;HPM_P2
2022/05/24 00:00:44;;;;;;;2.05;1.73;;;;;;;17.54;66.54;99633.81;5116418;28;20102;-79
2022/05/24 00:03:15;;;;;;;2.10;1.23;;;;;;;17.45;66.10;99631.84;5101399;28;20035;-79
2022/05/24 00:06:29;;;;;;;1.38;1.27;;;;;;;17.44;67.05;99638.09;5108885;29;20461;-79
2022/05/24 00:08:43;;;;;;;1.58;1.35;;;;;;;17.32;67.64;99647.78;5094810;29;20539;-79
2022/05/24 00:11:16;;;;;;;2.47;1.45;;;;;;;17.23;68.35;99636.03;5087691;29;20049;-79
2022/05/24 00:13:47;;;;;;;0.93;0.93;;;;;;;17.02;69.62;99640.25;5110329;29;20027;-79
2022/05/24 00:16:17;;;;;;;1.63;1.52;;;;;;;17.08;69.08;99638.00;5100155;29;20042;-79
2022/05/24 00:18:51;;;;;;;1.00;1.00;;;;;;;16.90;69.52;99631.34;5129995;28;20070;-79
2022/05/24 00:21:22;;;;;;;1.13;1.08;;;;;;;17.08;67.83;99631.84;5128572;28;20091;-79
2022/05/24 00:23:53;;;;;;;4.20;1.73;;;;;;;17.05;68.69;99626.78;5130618;28;20442;-79
2022/05/24 00:26:32;;;;;;;1.40;1.30;;;;;;;17.11;67.85;99629.81;5077797;29;20047;-79
2022/05/24 00:29:04;;;;;;;1.17;1.00;;;;;;;17.26;67.14;99630.53;5116887;28;20043;-79
2022/05/24 00:31:34;;;;;;;1.53;1.43;;;;;;;17.02;68.59;99621.69;5117497;29;20449;-79
2022/05/24 00:34:08;;;;;;;1.52;1.42;;;;;;;17.11;68.55;99610.44;5117233;28;20035;-79
2022/05/24 00:36:39;;;;;;;1.48;1.38;;;;;;;17.26;66.65;99604.00;5095452;29;20664;-79
2022/05/24 00:39:09;;;;;;;1.38;0.95;;;;;;;17.15;67.61;99607.44;5109226;28;20046;-79
2022/05/24 00:41:53;;;;;;;2.47;2.25;;;;;;;17.19;67.71;99602.78;5094853;29;20560;-80
2022/05/24 00:44:29;;;;;;;6.82;2.42;;;;;;;17.19;67.34;99601.94;5131210;28;20555;-79
2022/05/24 00:47:13;;;;;;;4.53;3.00;;;;;;;17.23;66.20;99606.88;5114876;28;20027;-80
2022/05/24 00:50:01;;;;;;;2.03;1.80;;;;;;;17.34;66.29;99610.56;5117617;28;20035;-79
2022/05/24 00:52:48;;;;;;;0.68;0.68;;;;;;;17.34;66.00;99615.84;5127856;28;20063;-80
2022/05/24 00:55:22;;;;;;;3.15;1.08;;;;;;;17.29;65.73;99613.53;5109513;28;20490;-80
2022/05/24 00:58:09;;;;;;;1.85;1.70;;;;;;;17.34;66.59;99606.13;5085689;29;22840;-79
2022/05/24 01:00:39;;;;;;;2.28;1.92;;;;;;;17.23;66.80;99608.69;5085580;29;20047;-80
2022/05/24 01:03:11;;;;;;;0.77;0.77;;;;;;;17.12;67.82;99612.97;5087779;29;20513;-79
2022/05/24 01:05:43;;;;;;;0.90;0.90;;;;;;;17.20;67.31;99623.03;5109665;28;20071;-80
2022/05/24 01:08:13;;;;;;;1.45;1.35;;;;;;;16.95;69.30;99619.50;5109970;28;20039;-79
2022/05/24 01:10:50;;;;;;;1.02;1.00;;;;;;;16.95;68.58;99624.78;5113579;28;20246;-79
2022/05/24 01:13:25;;;;;;;1.45;1.35;;;;;;;16.89;69.45;99625.19;5128848;28;20074;-79
2022/05/24 01:15:55;;;;;;;0.82;0.82;;;;;;;16.82;69.54;99631.88;5114724;28;20129;-79
2022/05/24 01:18:26;;;;;;;0.80;0.80;;;;;;;16.81;69.66;99630.19;5105444;29;20027;-79
2022/05/24 01:21:04;;;;;;;1.50;0.80;;;;;;;16.72;70.18;99638.78;5121068;28;20110;-80
2022/05/24 01:23:57;;;;;;;3.45;1.40;;;;;;;16.61;69.72;99635.06;5134975;28;20031;-80
2022/05/24 01:26:47;;;;;;;;;;;;;;;16.39;70.37;99642.81;5097501;29;20039;-80
2022/05/24 01:29:20;;;;;;;1.90;1.60;;;;;;;16.51;69.32;99642.81;5117674;28;19966;-80
2022/05/24 01:37:31;;;;;;;0.77;0.77;;;;;;;16.68;67.62;99628.41;5117332;29;20034;-80
2022/05/24 01:40:03;;;;;;;1.02;1.02;;;;;;;16.81;66.89;99632.84;5138536;23;20795;-87
2022/05/24 01:42:34;;;;;;;1.42;0.70;;;;;;;16.78;66.57;99623.28;5180323;28;20041;-87
2022/05/24 01:45:11;;;;;;;0.60;0.60;;;;;;;16.75;67.15;99639.41;5184069;28;20052;-87
2022/05/24 01:47:44;;;;;;;0.55;0.55;;;;;;;16.70;66.92;99630.09;5201038;28;20021;-87
2022/05/24 01:50:19;;;;;;;2.22;0.82;;;;;;;16.48;67.70;99626.31;5204399;28;20044;-87
2022/05/24 01:52:55;;;;;;;0.77;0.77;;;;;;;16.45;67.30;99623.84;5181749;28;20029;-87
2022/05/24 01:55:32;;;;;;;0.75;0.73;;;;;;;16.50;67.04;99627.03;5174659;28;20120;-87
2022/05/24 01:58:11;;;;;;;1.33;1.25;;;;;;;16.41;67.19;99628.53;5195220;28;20032;-87
2022/05/24 02:00:50;;;;;;;0.35;0.35;;;;;;;16.32;67.13;99629.97;5186207;28;20040;-87
2022/05/24 02:03:21;;;;;;;0.45;0.45;;;;;;;16.24;67.37;99627.00;5191473;28;20039;-87
2022/05/24 02:05:51;;;;;;;0.45;0.45;;;;;;;15.79;68.06;99631.78;5201346;28;20559;-86
2022/05/24 02:08:22;;;;;;;0.50;0.50;;;;;;;15.91;67.29;99630.16;5180567;28;20036;-87
2022/05/24 02:11:03;;;;;;;3.20;1.85;;;;;;;15.69;68.21;99632.41;5184164;28;20091;-88
2022/05/24 02:13:39;;;;;;;0.28;0.28;;;;;;;15.97;66.64;99635.91;5171353;28;20306;-87
2022/05/24 02:16:13;;;;;;;0.50;0.40;;;;;;;15.98;66.95;99634.94;5215934;28;20091;-87
2022/05/24 02:18:48;;;;;;;0.57;0.57;;;;;;;15.87;66.97;99638.28;5185134;28;20488;-86
2022/05/24 02:21:19;;;;;;;0.30;0.30;;;;;;;15.92;66.23;99637.97;5188104;28;20288;-87
2022/05/24 02:23:51;;;;;;;0.68;0.68;;;;;;;15.79;66.51;99637.06;5199897;28;20314;-87
2022/05/24 02:26:24;;;;;;;0.80;0.80;;;;;;;15.76;66.51;99637.28;5175834;28;20159;-88
2022/05/24 02:28:55;;;;;;;0.68;0.68;;;;;;;15.66;66.73;99635.22;5176737;28;20030;-87
2022/05/24 02:31:26;;;;;;;0.43;0.43;;;;;;;15.75;66.31;99639.09;5170120;28;20163;-87
2022/05/24 02:33:57;;;;;;;0.45;0.45;;;;;;;15.85;65.90;99631.41;5204129;28;20079;-87
2022/05/24 02:36:27;;;;;;;0.30;0.30;;;;;;;15.87;65.82;99632.16;5191306;28;20013;-87
2022/05/24 02:38:58;;;;;;;0.75;0.75;;;;;;;15.63;66.41;99630.16;5189572;28;20222;-87
2022/05/24 02:41:28;;;;;;;0.65;0.65;;;;;;;15.80;65.45;99618.44;5186128;28;20082;-87
2022/05/24 02:44:01;;;;;;;0.40;0.40;;;;;;;15.90;64.98;99616.09;5205946;28;20127;-87
2022/05/24 02:46:34;;;;;;;0.30;0.30;;;;;;;15.89;64.56;99609.09;5181307;28;20026;-87
2022/05/24 02:49:07;;;;;;;0.68;0.68;;;;;;;15.86;64.77;99606.66;5195488;28;20507;-87
2022/05/24 02:51:39;;;;;;;0.93;0.82;;;;;;;15.99;64.41;99610.16;5200654;28;20025;-86
2022/05/24 02:54:13;;;;;;;0.30;0.30;;;;;;;16.03;64.68;99614.31;5192648;28;20098;-87
2022/05/24 02:56:44;;;;;;;0.43;0.43;;;;;;;16.05;63.96;99619.47;5198782;28;20365;-87
2022/05/24 02:59:14;;;;;;;0.63;0.63;;;;;;;16.06;63.98;99613.25;5183375;28;20040;-87
2022/05/24 03:01:45;;;;;;;0.55;0.55;;;;;;;16.00;63.67;99614.50;5169374;28;20051;-86
2022/05/24 03:04:15;;;;;;;5.57;1.00;;;;;;;15.99;64.21;99623.38;5189269;28;20411;-87
2022/05/24 03:09:35;;;;;;;0.57;0.57;;;;;;;16.08;63.67;99624.59;5195749;28;20411;-87
2022/05/24 03:14:58;;;;;;;0.40;0.40;;;;;;;16.04;63.84;99615.13;5197206;28;20146;-87
2022/05/24 03:17:28;;;;;;;0.75;0.75;;;;;;;16.04;63.54;99612.50;5183563;28;20029;-87
2022/05/24 03:19:59;;;;;;;0.30;0.30;;;;;;;15.97;63.86;99620.03;5217773;28;20374;-87
2022/05/24 03:22:29;;;;;;;1.13;0.77;;;;;;;16.04;63.87;99617.78;5199734;28;20488;-87
2022/05/24 03:25:00;;;;;;;0.60;0.60;;;;;;;16.03;63.84;99624.88;5203431;28;20056;-87
2022/05/24 03:27:30;;;;;;;11.60;1.85;;;;;;;15.91;64.39;99620.41;5191563;28;20021;-87
2022/05/24 03:30:00;;;;;;;1.00;1.00;;;;;;;15.94;63.79;99620.22;5205257;28;20466;-87
2022/05/24 03:32:31;;;;;;;0.63;0.63;;;;;;;16.02;63.64;99631.13;5185901;28;20025;-87
2022/05/24 03:35:03;;;;;;;0.40;0.40;;;;;;;16.04;63.17;99629.22;5201319;28;20135;-87
2022/05/24 03:37:34;;;;;;;1.67;1.45;;;;;;;15.85;64.13;99615.53;5205169;28;20331;-87
2022/05/24 03:40:06;;;;;;;0.30;0.30;;;;;;;15.82;63.93;99615.72;5167771;28;1128628;-87
2022/05/24 03:42:37;;;;;;;0.45;0.45;;;;;;;15.86;63.67;99612.81;5194883;28;20292;-87
2022/05/24 03:45:09;;;;;;;1.27;1.17;;;;;;;15.85;63.79;99626.97;5186698;28;20045;-87
2022/05/24 03:47:40;;;;;;;0.35;0.35;;;;;;;15.81;64.21;99624.59;5202111;28;20040;-87
2022/05/24 03:50:11;;;;;;;1.58;1.48;;;;;;;15.71;63.80;99622.56;5207435;28;20037;-87
2022/05/24 03:52:41;;;;;;;0.43;0.43;;;;;;;15.65;64.04;99625.63;5207381;28;20573;-87
2022/05/24 03:55:12;;;;;;;0.50;0.50;;;;;;;15.74;64.03;99630.28;5220299;28;20075;-87
2022/05/24 03:58:01;;;;;;;0.75;0.65;;;;;;;15.79;63.21;99645.84;5189697;28;20068;-87
2022/05/24 04:00:35;;;;;;;3.08;0.98;;;;;;;15.70;63.84;99660.53;5215913;28;20044;-87
2022/05/24 04:03:07;;;;;;;7.22;1.02;;;;;;;15.67;63.83;99663.38;5208784;28;20033;-87
2022/05/24 04:05:37;;;;;;;5.80;1.15;;;;;;;15.53;63.87;99664.28;5203708;28;20441;-87
2022/05/24 04:08:08;;;;;;;0.47;0.47;;;;;;;15.54;63.72;99671.25;5195147;28;20479;-87
2022/05/24 04:10:39;;;;;;;2.50;1.75;;;;;;;15.50;63.74;99679.47;5190181;28;20041;-87
2022/05/24 04:13:10;;;;;;;4.20;1.42;;;;;;;15.68;63.12;99680.94;5170670;28;20021;-87
2022/05/24 04:15:41;;;;;;;0.90;0.88;;;;;;;15.51;63.40;99684.69;5184996;28;20036;-88
2022/05/24 04:18:11;;;;;;;0.88;0.73;;;;;;;15.39;64.17;99682.81;5185085;28;20396;-88
2022/05/24 04:20:42;;;;;;;0.55;0.55;;;;;;;14.99;65.43;99675.63;5208401;28;20067;-87
2022/05/24 04:23:14;;;;;;;0.20;0.20;;;;;;;14.80;66.06;99686.44;5189442;28;20052;-86
2022/05/24 04:25:44;;;;;;;0.30;0.30;;;;;;;14.75;66.31;99681.44;5168888;28;20029;-89
2022/05/24 04:28:18;;;;;;;2.42;1.55;;;;;;;14.85;66.15;99678.25;5206957;28;20043;-88
2022/05/24 04:30:51;;;;;;;0.60;0.60;;;;;;;14.86;66.25;99670.25;5169495;28;20040;-89
2022/05/24 04:33:21;;;;;;;11.23;2.00;;;;;;;14.91;66.26;99669.97;5202933;28;20032;-88
2022/05/24 04:35:51;;;;;;;0.77;0.77;;;;;;;14.67;67.20;99674.97;5179530;28;20037;-86
2022/05/24 04:38:23;;;;;;;0.38;0.38;;;;;;;14.81;66.11;99680.22;5172791;28;20033;-89
2022/05/24 04:43:43;;;;;;;0.20;0.20;;;;;;;14.68;66.52;99681.94;5228696;28;20029;-88
2022/05/24 04:46:13;;;;;;;1.55;1.25;;;;;;;14.68;66.60;99688.06;5195444;28;20452;-90
2022/05/24 04:48:44;;;;;;;0.40;0.40;;;;;;;14.53;67.30;99695.09;5189249;28;20087;-89
2022/05/24 04:51:15;;;;;;;0.63;0.40;;;;;;;14.54;67.53;99702.06;5180752;28;20186;-89
2022/05/24 04:53:45;;;;;;;0.30;0.30;;;;;;;14.79;66.49;99706.75;5190374;28;20601;-88
2022/05/24 04:56:15;;;;;;;0.30;0.30;;;;;;;14.68;66.65;99729.47;5206195;28;20357;-88
2022/05/24 04:58:46;;;;;;;0.30;0.30;;;;;;;14.48;67.88;99731.44;5184593;28;20028;-88
2022/05/24 05:01:16;;;;;;;0.35;0.35;;;;;;;14.32;68.22;99737.63;5186684;28;20245;-88
2022/05/24 05:03:47;;;;;;;0.50;0.50;;;;;;;14.38;68.09;99741.72;5186942;28;20494;-88
2022/05/24 05:06:18;;;;;;;0.60;0.60;;;;;;;14.38;68.03;99746.16;5206415;28;20071;-88
2022/05/24 05:08:48;;;;;;;1.67;1.25;;;;;;;14.32;67.77;99752.63;5165099;28;20115;-88
2022/05/24 05:11:19;;;;;;;1.73;1.25;;;;;;;14.34;67.78;99756.00;5209730;28;20047;-88
2022/05/24 05:13:49;;;;;;;0.30;0.30;;;;;;;14.17;68.36;99760.47;5202887;28;20091;-87
2022/05/24 05:16:20;;;;;;;0.30;0.30;;;;;;;14.03;69.29;99776.25;5185470;28;20037;-87
2022/05/24 05:18:53;;;;;;;0.45;0.45;;;;;;;14.27;68.37;99774.00;5176093;28;20059;-88
2022/05/24 05:21:31;;;;;;;1.00;0.80;;;;;;;14.13;69.19;99782.72;5195276;28;20427;-87
2022/05/24 05:24:04;;;;;;;0.63;0.63;;;;;;;13.83;71.06;99791.41;5215626;28;20538;-87
2022/05/24 05:26:35;;;;;;;0.30;0.30;;;;;;;13.78;70.70;99788.16;5181808;28;20082;-87
2022/05/24 05:29:06;;;;;;;0.30;0.30;;;;;;;13.73;70.24;99799.91;5174886;28;20037;-87
2022/05/24 05:31:36;;;;;;;1.13;0.47;;;;;;;13.71;71.18;99807.06;5207182;28;20032;-89
2022/05/24 05:34:07;;;;;;;0.20;0.20;;;;;;;13.58;71.60;99812.16;5215692;28;20068;-89
2022/05/24 05:36:38;;;;;;;0.30;0.30;;;;;;;13.64;70.72;99814.44;5173840;28;20026;-89
2022/05/24 05:39:08;;;;;;;0.25;0.25;;;;;;;13.54;70.87;99807.03;5185757;28;20089;-88
2022/05/24 05:41:39;;;;;;;12.35;1.27;;;;;;;13.61;70.94;99806.69;5190355;28;20033;-88
2022/05/24 05:44:12;;;;;;;0.45;0.45;;;;;;;13.59;70.73;99813.84;5188012;28;20033;-89
2022/05/24 05:46:42;;;;;;;0.30;0.30;;;;;;;13.61;70.57;99819.88;5188101;28;20029;-88
2022/05/24 05:49:15;;;;;;;5.68;1.30;;;;;;;13.80;69.83;99817.09;5190672;28;20036;-88
2022/05/24 05:51:46;;;;;;;0.30;0.30;;;;;;;13.79;70.35;99816.25;5205524;28;20397;-88
2022/05/24 05:54:16;;;;;;;0.45;0.45;;;;;;;13.87;69.45;99829.00;5174730;28;20037;-89
2022/05/24 05:56:47;;;;;;;0.30;0.30;;;;;;;13.84;70.63;99832.63;5171337;28;20067;-89
2022/05/24 05:59:18;;;;;;;0.80;0.80;;;;;;;13.91;69.09;99840.25;5186646;28;20122;-89
2022/05/24 06:01:48;;;;;;;0.77;0.77;;;;;;;13.95;69.62;99845.25;5199053;28;20036;-88
2022/05/24 06:04:18;;;;;;;0.30;0.30;;;;;;;13.81;70.27;99850.41;5207660;28;20025;-89
2022/05/24 06:06:49;;;;;;;0.52;0.52;;;;;;;13.84;70.68;99847.63;5186310;28;20021;-89
2022/05/24 06:09:20;;;;;;;3.33;1.23;;;;;;;13.82;69.80;99857.41;5165412;28;20043;-90
2022/05/24 06:11:50;;;;;;;0.28;0.28;;;;;;;13.89;69.54;99842.94;5190334;28;20107;-89
2022/05/24 06:14:21;;;;;;;0.30;0.30;;;;;;;13.94;70.03;99847.97;5188870;28;20037;-89
2022/05/24 06:16:51;;;;;;;1.13;0.98;;;;;;;13.80;70.98;99854.84;5186974;28;20071;-89
2022/05/24 06:19:22;;;;;;;0.52;0.52;;;;;;;13.98;69.37;99855.63;5175158;28;20040;-89
2022/05/24 06:21:52;;;;;;;0.30;0.30;;;;;;;13.68;70.36;99860.78;5202312;28;20021;-88
2022/05/24 06:24:23;;;;;;;0.30;0.30;;;;;;;14.03;68.66;99860.66;5187589;28;20479;-89
2022/05/24 06:26:53;;;;;;;0.40;0.40;;;;;;;13.87;69.14;99865.06;5186154;28;20082;-90
2022/05/24 06:29:24;;;;;;;0.40;0.40;;;;;;;14.11;68.62;99863.72;5186805;28;20040;-89
2022/05/24 06:31:55;;;;;;;1.27;1.17;;;;;;;14.14;67.78;99874.09;5210479;28;20028;-88
2022/05/24 06:34:25;;;;;;;0.50;0.50;;;;;;;14.11;67.83;99871.63;5168593;28;20572;-89
2022/05/24 06:36:57;;;;;;;5.10;0.50;;;;;;;14.21;67.69;99884.31;5185087;28;20049;-89
2022/05/24 06:39:27;;;;;;;1.15;1.10;;;;;;;13.98;69.02;99883.78;5175264;28;20437;-90
2022/05/24 06:41:57;;;;;;;0.22;0.22;;;;;;;14.13;68.40;99885.59;5189921;28;20043;-89
2022/05/24 06:44:28;;;;;;;0.40;0.40;;;;;;;14.15;68.79;99882.84;5187353;28;20041;-89
2022/05/24 06:46:58;;;;;;;0.60;0.60;;;;;;;14.09;68.66;99888.47;5202902;28;20155;-89
2022/05/24 06:49:29;;;;;;;0.65;0.65;;;;;;;14.10;69.27;99893.66;5171513;28;20103;-89
2022/05/24 06:51:59;;;;;;;0.43;0.43;;;;;;;13.91;69.73;99891.19;5198983;28;20055;-89
2022/05/24 06:54:30;;;;;;;0.30;0.30;;;;;;;14.03;69.43;99897.56;5197388;28;20042;-90
2022/05/24 06:57:02;;;;;;;0.30;0.30;;;;;;;13.99;68.81;99903.97;5197984;28;20692;-89
2022/05/24 07:02:27;;;;;;;7.65;0.60;;;;;;;13.77;70.07;99905.09;5185178;28;20132;-89
2022/05/24 07:05:17;;;;;;;8.52;0.90;;;;;;;13.66;70.77;99920.66;5190206;28;20223;-89
2022/05/24 07:07:47;;;;;;;0.30;0.30;;;;;;;13.77;70.71;99923.56;5204937;28;20640;-89
2022/05/24 07:10:18;;;;;;;0.60;0.60;;;;;;;13.75;71.77;99928.09;5171363;28;20049;-89
2022/05/24 07:12:57;;;;;;;0.52;0.52;;;;;;;13.72;71.13;99935.31;5208034;28;20021;-89
2022/05/24 07:15:32;;;;;;;0.30;0.30;;;;;;;13.71;71.66;99926.53;5187319;28;20044;-89
2022/05/24 07:18:04;;;;;;;5.18;0.95;;;;;;;13.83;71.33;99931.16;5186850;28;20025;-89
2022/05/24 07:20:36;;;;;;;11.50;1.35;;;;;;;13.93;71.11;99943.81;5180825;28;20041;-89
2022/05/24 07:23:10;;;;;;;0.30;0.30;;;;;;;13.77;71.53;99939.38;5184954;28;20037;-89
2022/05/24 07:25:41;;;;;;;0.85;0.85;;;;;;;13.91;71.34;99941.28;5204411;28;20040;-87
2022/05/24 07:28:15;;;;;;;0.45;0.45;;;;;;;13.88;70.91;99936.19;5192837;28;20079;-86
2022/05/24 07:30:48;;;;;;;0.70;0.70;;;;;;;13.87;70.78;99944.16;5201139;28;20051;-88
2022/05/24 07:33:18;;;;;;;2.23;0.77;;;;;;;13.95;71.60;99949.88;5168039;28;20029;-88
2022/05/24 07:35:49;;;;;;;0.47;0.47;;;;;;;14.03;71.61;99963.50;5198497;28;20029;-88
2022/05/24 07:38:19;;;;;;;0.55;0.55;;;;;;;13.94;69.85;99962.22;5197652;28;20033;-88
2022/05/24 07:46:29;;;;;;;0.68;0.68;;;;;;;14.04;69.46;99954.66;5183565;28;20029;-87
2022/05/24 07:49:00;;;;;;;1.10;0.70;;;;;;;14.06;68.74;99957.22;5169392;28;20485;-88
2022/05/24 07:51:30;;;;;;;0.75;0.75;;;;;;;14.04;68.52;99957.31;5190394;28;20104;-87
2022/05/24 07:54:00;;;;;;;0.75;0.57;;;;;;;14.06;69.99;99955.44;5183684;28;20108;-87
2022/05/24 07:56:31;;;;;;;0.50;0.50;;;;;;;14.20;69.27;99956.47;5197441;28;20305;-88
2022/05/24 07:59:02;;;;;;;0.57;0.47;;;;;;;14.26;68.20;99961.41;5183394;28;20128;-87
2022/05/24 08:01:33;;;;;;;0.25;0.25;;;;;;;14.21;67.31;99966.09;5183173;28;20120;-87
2022/05/24 08:04:04;;;;;;;0.20;0.20;;;;;;;14.17;67.56;99950.41;5183812;28;20112;-87
2022/05/24 08:06:34;;;;;;;0.30;0.30;;;;;;;14.25;67.89;99959.72;5187491;28;20021;-86
2022/05/24 08:09:05;;;;;;;0.40;0.40;;;;;;;14.28;67.79;99959.53;5220175;28;20051;-88
2022/05/24 08:11:35;;;;;;;0.28;0.28;;;;;;;14.35;67.58;99960.06;5167669;28;20029;-88
2022/05/24 08:14:06;;;;;;;0.20;0.20;;;;;;;14.36;65.76;99961.78;5185767;28;20029;-87
2022/05/24 08:16:37;;;;;;;0.60;0.60;;;;;;;14.42;66.57;99969.34;5168632;28;20026;-86
2022/05/24 08:19:08;;;;;;;0.40;0.40;;;;;;;14.55;66.85;99966.88;5181304;28;20495;-87
2022/05/24 08:21:39;;;;;;;0.30;0.30;;;;;;;14.60;65.95;99976.25;5178291;28;20036;-87
2022/05/24 08:24:09;;;;;;;0.30;0.30;;;;;;;14.51;65.29;99976.75;5170721;28;20033;-88
2022/05/24 08:26:40;;;;;;;7.30;0.73;;;;;;;14.57;65.58;99975.56;5168525;28;20028;-88
2022/05/24 08:29:10;;;;;;;0.40;0.40;;;;;;;14.57;65.19;99988.78;5205090;28;20036;-88
2022/05/24 08:31:41;;;;;;;0.30;0.30;;;;;;;14.67;66.09;99979.41;5176948;28;20068;-88
2022/05/24 08:34:14;;;;;;;0.40;0.40;;;;;;;14.71;65.99;99983.59;5187871;28;20060;-87
2022/05/24 08:36:44;;;;;;;0.30;0.30;;;;;;;14.63;65.26;99980.50;5186830;28;20032;-87
2022/05/24 08:39:15;;;;;;;0.30;0.30;;;;;;;14.73;63.74;99980.84;5167594;28;20036;-87
2022/05/24 08:42:04;;;;;;;0.30;0.30;;;;;;;14.67;62.94;99987.31;5186311;28;20099;-88
2022/05/24 08:50:34;;;;;;;0.30;0.30;;;;;;;14.71;64.18;99999.44;5199751;28;20049;-87
2022/05/24 08:53:09;;;;;;;0.30;0.30;;;;;;;14.70;64.30;100000.38;5188854;28;20502;-87
2022/05/24 08:55:43;;;;;;;0.30;0.30;;;;;;;14.76;64.20;100004.47;5205949;28;20144;-87
2022/05/24 08:58:27;;;;;;;0.40;0.40;;;;;;;14.62;62.31;100003.41;5170745;28;20032;-88
2022/05/24 09:00:58;;;;;;;0.28;0.28;;;;;;;14.75;63.65;100008.88;5189492;28;20453;-87
2022/05/24 09:03:31;;;;;;;0.30;0.30;;;;;;;14.81;62.83;100012.97;5204424;28;20033;-88
2022/05/24 09:06:07;;;;;;;;;;;;;;;14.84;62.19;100004.00;5187026;28;20415;-88
2022/05/24 09:08:44;;;;;;;1.63;1.55;;;;;;;14.88;61.82;100016.13;5191698;28;20440;-87
2022/05/24 09:11:45;;;;;;;0.22;0.22;;;;;;;14.91;62.27;100027.38;5192192;28;20036;-88
2022/05/24 09:14:56;;;;;;;0.40;0.40;;;;;;;15.01;62.52;100025.03;5186254;28;20037;-88
2022/05/24 09:17:39;;;;;;;0.40;0.40;;;;;;;15.18;62.38;100028.50;5174897;28;20026;-88
2022/05/24 09:20:27;;;;;;;0.70;0.70;;;;;;;15.08;63.15;100028.19;5182658;28;20052;-87
2022/05/24 09:23:16;;;;;;;0.30;0.30;;;;;;;15.14;63.15;100038.41;5190780;28;20035;-87
2022/05/24 09:25:57;;;;;;;0.30;0.30;;;;;;;15.19;62.27;100035.50;5205703;28;20046;-87
2022/05/24 09:28:47;;;;;;;3.53;1.10;;;;;;;15.25;62.19;100043.06;5203590;28;20014;-87
2022/05/24 09:31:39;;;;;;;0.30;0.30;;;;;;;15.04;61.17;100043.38;5208019;28;20094;-88
2022/05/24 09:34:13;;;;;;;0.30;0.30;;;;;;;14.97;60.86;100047.31;5200775;28;20517;-87
2022/05/24 09:36:59;;;;;;;0.30;0.30;;;;;;;15.05;61.44;100053.00;5203636;28;20276;-87
2022/05/24 09:39:55;;;;;;;0.93;0.85;;;;;;;15.17;61.89;100047.94;5214376;28;20048;-88
2022/05/24 09:42:30;;;;;;;0.20;0.20;;;;;;;15.13;61.33;100046.44;5206645;28;20033;-87
2022/05/24 09:45:02;;;;;;;0.30;0.30;;;;;;;15.22;60.83;100051.19;5186594;28;20056;-87
2022/05/24 09:47:38;;;;;;;0.20;0.20;;;;;;;15.26;61.65;100065.91;5188506;28;20029;-88
2022/05/24 09:50:14;;;;;;;0.45;0.38;;;;;;;15.21;59.37;100052.13;5180805;28;20402;-87
2022/05/24 09:53:08;;;;;;;0.40;0.40;;;;;;;15.24;59.74;100065.19;5215298;28;20036;-87
2022/05/24 09:55:46;;;;;;;0.22;0.22;;;;;;;15.28;58.81;100064.06;5187120;28;20521;-87
2022/05/24 09:58:26;;;;;;;0.30;0.30;;;;;;;15.39;59.65;100069.59;5201522;28;20079;-87
2022/05/24 10:01:01;;;;;;;0.20;0.20;;;;;;;15.37;59.52;100074.09;5183640;28;20094;-87
2022/05/24 10:03:51;;;;;;;0.60;0.60;;;;;;;15.49;59.09;100074.34;5220981;28;20108;-87
2022/05/24 10:06:25;;;;;;;0.40;0.40;;;;;;;15.31;57.66;100077.09;5218158;28;20037;-88
2022/05/24 10:09:03;;;;;;;0.38;0.38;;;;;;;15.35;58.65;100093.63;5196463;28;20057;-87
2022/05/24 10:11:52;;;;;;;0.30;0.30;;;;;;;15.29;58.67;100086.91;5168368;28;20041;-87
2022/05/24 10:15:08;;;;;;;0.30;0.30;;;;;;;15.42;59.23;100095.81;5185295;28;20300;-88
2022/05/24 10:17:51;;;;;;;0.95;0.95;;;;;;;15.53;58.52;100097.88;5213329;28;20025;-87
2022/05/24 10:20:49;;;;;;;0.73;0.73;;;;;;;15.58;58.01;100089.66;5184333;28;20550;-87
2022/05/24 10:23:52;;;;;;;0.20;0.20;;;;;;;15.71;59.15;100090.66;5169632;28;20108;-87
2022/05/24 10:26:44;;;;;;;0.40;0.40;;;;;;;15.69;57.71;100099.63;5197867;28;20036;-88
2022/05/24 10:29:40;;;;;;;0.50;0.50;;;;;;;15.71;57.51;100095.94;5165102;28;20041;-87
2022/05/24 10:39:18;;;;;;;0.40;0.40;;;;;;;15.99;56.76;100102.25;5185304;28;20025;-87
2022/05/24 10:42:04;;;;;;;0.20;0.20;;;;;;;16.08;58.07;100097.34;5210402;28;20055;-86
2022/05/24 10:44:47;;;;;;;0.20;0.20;;;;;;;16.03;56.71;100101.16;5199336;28;20120;-87
2022/05/24 10:47:45;;;;;;;0.55;0.38;;;;;;;16.20;57.43;100091.34;5205642;28;20052;-87
2022/05/24 10:50:25;;;;;;;0.30;0.30;;;;;;;16.30;57.91;100091.63;5179270;28;20051;-88
2022/05/24 10:53:08;;;;;;;0.40;0.40;;;;;;;16.36;55.79;100110.63;5220789;28;20036;-87
2022/05/24 10:56:14;;;;;;;0.20;0.20;;;;;;;16.26;53.88;100101.53;5203176;28;20040;-87
2022/05/24 10:58:47;;;;;;;0.20;0.20;;;;;;;16.32;54.11;100097.69;5188136;28;20041;-88
2022/05/24 11:01:18;;;;;;;;;;;;;;;16.40;54.84;100108.66;5185638;28;20063;-87
2022/05/24 11:03:54;;;;;;;0.30;0.30;;;;;;;16.47;54.19;100114.44;5201296;28;19913;-87
2022/05/24 11:06:31;;;;;;;0.30;0.30;;;;;;;16.47;52.93;100109.13;5197492;28;20036;-87
2022/05/24 11:09:10;;;;;;;0.28;0.28;;;;;;;16.41;53.23;100109.47;5213038;28;20032;-87
2022/05/24 11:11:52;;;;;;;0.20;0.20;;;;;;;16.39;54.55;100106.09;5182456;28;20555;-87
2022/05/24 11:14:45;;;;;;;0.40;0.40;;;;;;;16.46;53.78;100118.00;5187410;28;20045;-88
2022/05/24 11:17:17;;;;;;;0.40;0.40;;;;;;;16.52;54.70;100101.75;5203109;28;20648;-88
2022/05/24 11:19:52;;;;;;;0.25;0.25;;;;;;;16.48;53.96;100106.38;5180257;28;20051;-88
2022/05/24 11:22:25;;;;;;;0.20;0.20;;;;;;;16.43;54.02;100107.59;5198837;28;20025;-88
2022/05/24 11:25:37;;;;;;;0.20;0.20;;;;;;;16.58;54.40;100105.81;5200893;28;20053;-86
2022/05/24 11:28:19;;;;;;;0.30;0.30;;;;;;;16.68;55.27;100102.50;5109779;28;20040;-85
2022/05/24 11:30:51;;;;;;;0.43;0.43;;;;;;;16.70;53.65;100112.13;5134583;28;20077;-86
2022/05/24 11:33:41;;;;;;;0.28;0.28;;;;;;;16.74;54.91;100111.00;5177547;28;20041;-86
2022/05/24 11:36:43;;;;;;;0.20;0.20;;;;;;;16.83;55.08;100110.41;5194918;28;20033;-86
2022/05/24 11:39:23;;;;;;;0.30;0.30;;;;;;;17.06;54.85;100105.50;5184423;28;20036;-86
2022/05/24 11:42:23;;;;;;;0.20;0.20;;;;;;;17.13;53.86;100107.66;5200322;28;20037;-86
2022/05/24 11:44:57;;;;;;;1.50;1.17;;;;;;;17.26;54.13;100114.81;5183101;28;20044;-87
2022/05/24 11:47:47;;;;;;;0.40;0.40;;;;;;;17.35;52.47;100121.31;5179430;28;20056;-86
2022/05/24 11:50:30;;;;;;;0.20;0.20;;;;;;;17.40;52.46;100113.91;5205797;28;20080;-86
2022/05/24 11:53:00;;;;;;;1.40;0.43;;;;;;;17.45;50.87;100130.38;5201764;28;20145;-86
2022/05/24 11:55:48;;;;;;;0.63;0.63;;;;;;;17.55;50.33;100123.53;5220608;28;20283;-85
2022/05/24 11:58:18;;;;;;;0.30;0.30;;;;;;;17.54;49.59;100132.44;5173280;28;20029;-87
2022/05/24 12:01:07;;;;;;;0.20;0.20;;;;;;;17.66;49.70;100129.91;5201851;28;20047;-88
2022/05/24 12:09:55;;;;;;;0.80;0.80;;;;;;;18.03;49.14;100123.00;5184919;28;20631;-87
2022/05/24 12:12:33;;;;;;;1.88;1.75;;;;;;;17.94;49.40;100137.72;5186494;28;20055;-87
2022/05/24 12:15:23;;;;;;;1.02;0.80;;;;;;;17.90;47.81;100141.53;5200400;28;20048;-88
2022/05/24 12:17:59;;;;;;;0.20;0.20;;;;;;;17.96;49.14;100145.59;5214627;28;20122;-86
2022/05/24 12:20:33;;;;;;;0.38;0.38;;;;;;;17.84;47.90;100147.25;5199517;28;20127;-86
2022/05/24 12:23:06;;;;;;;0.20;0.20;;;;;;;17.73;49.14;100157.72;5205681;28;20033;-86
2022/05/24 12:25:54;;;;;;;0.30;0.30;;;;;;;17.89;49.24;100153.09;5195238;28;20080;-87
2022/05/24 12:28:48;;;;;;;0.40;0.40;;;;;;;18.06;48.35;100159.09;5200351;28;20619;-85
2022/05/24 12:31:25;;;;;;;0.75;0.75;;;;;;;18.18;49.23;100158.28;5196324;28;20511;-85
2022/05/24 12:34:08;;;;;;;0.30;0.30;;;;;;;18.37;48.36;100157.03;5203918;28;20037;-86
2022/05/24 12:36:39;;;;;;;0.40;0.40;;;;;;;18.39;47.59;100160.41;5181438;28;20443;-86
2022/05/24 12:39:17;;;;;;;0.38;0.38;;;;;;;18.30;48.61;100161.06;5187162;28;20040;-85
2022/05/24 12:41:52;;;;;;;0.40;0.40;;;;;;;18.30;48.32;100167.22;5229644;28;20055;-85
2022/05/24 12:44:31;;;;;;;0.75;0.75;;;;;;;18.38;48.10;100166.69;5193786;28;20518;-86
2022/05/24 12:47:02;;;;;;;1.20;1.13;;;;;;;18.31;47.14;100162.75;5180577;28;20108;-86
2022/05/24 12:49:34;;;;;;;0.63;0.63;;;;;;;18.52;47.40;100160.41;5181548;28;20198;-86
2022/05/24 12:52:15;;;;;;;0.30;0.30;;;;;;;18.61;47.98;100158.94;5185869;28;20237;-86